Time;durP1;ratioP1;P1;durP2;ratioP2;P2;SDS_P1;SDS_P2;PMS_P1;PMS_P2;Temp;Humidity;BMP_temperature;BMP_pressure;BME280_temperature;BME280_humidity;BME280_pressure;Samples;Min_cycle;Max_cycle;Signal;HPM_P1;HPM_P2
2021/01/14 00:00:36;;;;;;;61.13;36.30;;;;;;;0.15;81.76;98837.44;120458;1154;104442;-81
2021/01/14 00:03:09;;;;;;;67.77;37.63;;;;;;;0.16;81.91;98844.26;120545;1153;104319;-82
2021/01/14 00:05:37;;;;;;;71.50;39.37;;;;;;;0.18;82.15;98829.70;120003;1154;104324;-82
2021/01/14 00:08:05;;;;;;;63.90;36.53;;;;;;;0.18;81.79;98839.95;120539;1154;102130;-82
2021/01/14 00:10:33;;;;;;;62.83;36.43;;;;;;;0.16;81.80;98844.26;120539;1153;102821;-82
2021/01/14 00:13:01;;;;;;;64.05;36.15;;;;;;;0.13;82.22;98846.86;119968;1153;104284;-82
2021/01/14 00:15:28;;;;;;;63.67;35.07;;;;;;;0.07;81.72;98837.55;119915;1154;104522;-82
2021/01/14 00:17:55;;;;;;;62.47;35.13;;;;;;;0.06;81.89;98840.98;120491;1153;104335;-82
2021/01/14 00:20:24;;;;;;;66.90;35.87;;;;;;;0.04;82.05;98839.30;119899;1152;103014;-82
2021/01/14 00:22:51;;;;;;;66.67;36.30;;;;;;;0.02;82.10;98843.60;120496;1153;104322;-82
2021/01/14 00:25:19;;;;;;;66.82;36.55;;;;;;;-0.01;82.28;98832.49;119868;1153;104442;-82
2021/01/14 00:27:46;;;;;;;62.93;36.47;;;;;;;0.04;82.21;98846.99;120056;1154;104485;-82
2021/01/14 00:30:17;;;;;;;63.30;36.20;;;;;;;0.04;82.02;98840.16;120494;1153;104505;-82
2021/01/14 00:32:45;;;;;;;63.73;35.80;;;;;;;0.05;81.98;98843.56;119928;1154;104346;-82
2021/01/14 00:35:13;;;;;;;57.50;34.25;;;;;;;0.07;82.18;98839.27;120091;1153;105087;-81
2021/01/14 00:37:50;;;;;;;64.43;34.67;;;;;;;0.06;82.10;98837.56;119909;1154;104327;-83
2021/01/14 00:40:29;;;;;;;61.67;35.53;;;;;;;0.05;81.92;98841.84;120472;1153;104358;-82
2021/01/14 00:43:12;;;;;;;64.23;35.73;;;;;;;0.06;82.28;98840.98;120505;1151;104465;-81
2021/01/14 00:45:40;;;;;;;69.13;36.53;;;;;;;0.05;81.93;98836.72;120518;1153;105546;-81
2021/01/14 00:48:07;;;;;;;66.97;36.23;;;;;;;0.06;81.97;98845.26;120539;1154;104457;-82
2021/01/14 00:50:34;;;;;;;58.17;34.03;;;;;;;0.03;82.01;98845.30;120456;1153;102046;-82
2021/01/14 00:53:01;;;;;;;66.97;35.37;;;;;;;-0.01;82.13;98847.88;120500;1153;104365;-82
2021/01/14 00:55:29;;;;;;;63.27;34.90;;;;;;;-0.06;82.22;98846.23;120489;1153;104397;-82
2021/01/14 00:57:56;;;;;;;61.10;35.60;;;;;;;-0.10;81.97;98845.44;120522;1153;104289;-82
2021/01/14 01:00:23;;;;;;;58.93;34.77;;;;;;;-0.14;82.20;98850.63;120526;1153;104298;-82
2021/01/14 01:02:53;;;;;;;58.17;35.80;;;;;;;-0.17;82.15;98851.51;120384;1153;104410;-82
2021/01/14 01:05:22;;;;;;;54.33;32.40;;;;;;;-0.19;82.45;98852.36;120539;1153;105075;-82
2021/01/14 01:07:57;;;;;;;60.93;36.13;;;;;;;-0.23;82.26;98843.88;120475;1153;104397;-82
2021/01/14 01:10:26;;;;;;;61.13;36.47;;;;;;;-0.24;82.22;98849.86;120583;1154;104389;-82
2021/01/14 01:12:55;;;;;;;61.57;36.03;;;;;;;-0.23;82.19;98851.56;119983;1154;103884;-82
2021/01/14 01:15:24;;;;;;;61.63;35.83;;;;;;;-0.23;82.44;98846.44;120014;1152;104345;-82
2021/01/14 01:17:53;;;;;;;68.90;36.47;;;;;;;-0.21;82.64;98844.70;120601;1153;103135;-82
2021/01/14 01:20:21;;;;;;;59.40;34.80;;;;;;;-0.20;82.36;98846.39;119984;1152;104319;-82
2021/01/14 01:22:48;;;;;;;66.70;34.43;;;;;;;-0.17;83.27;98843.82;120609;1154;102518;-82
2021/01/14 01:25:15;;;;;;;64.03;34.30;;;;;;;-0.15;82.88;98844.65;119940;1153;104359;-82
2021/01/14 01:27:44;;;;;;;62.87;35.60;;;;;;;-0.13;82.65;98848.04;120464;1154;104468;-82
2021/01/14 01:30:11;;;;;;;58.37;34.33;;;;;;;-0.10;82.76;98853.13;120369;1154;104404;-82
2021/01/14 01:32:39;;;;;;;62.67;34.73;;;;;;;-0.08;82.58;98845.41;120597;1154;104423;-82
2021/01/14 01:35:07;;;;;;;65.77;35.33;;;;;;;-0.06;82.31;98844.53;120545;1153;104424;-82
2021/01/14 01:37:34;;;;;;;68.13;34.80;;;;;;;-0.04;82.74;98845.35;119950;1154;103197;-82
2021/01/14 01:40:01;;;;;;;63.28;35.33;;;;;;;0.01;82.59;98852.16;120513;1154;104358;-82
2021/01/14 01:42:28;;;;;;;57.80;35.20;;;;;;;0.03;82.48;98861.53;120241;1152;105030;-81
2021/01/14 01:45:00;;;;;;;62.90;34.43;;;;;;;0.04;82.59;98860.66;119934;1154;104851;-82
2021/01/14 01:47:39;;;;;;;62.17;34.43;;;;;;;0.04;82.39;98855.53;120564;1154;104275;-81
2021/01/14 01:50:06;;;;;;;58.50;33.10;;;;;;;0.05;82.49;98856.38;120571;1153;104425;-82
2021/01/14 01:52:34;;;;;;;59.30;34.20;;;;;;;0.04;82.37;98850.41;120517;1153;103202;-82
2021/01/14 01:55:04;;;;;;;61.23;34.23;;;;;;;0.08;82.50;98856.34;120595;1154;104344;-82
2021/01/14 01:57:32;;;;;;;61.30;34.93;;;;;;;0.12;82.58;98853.70;120552;1154;104361;-82
2021/01/14 01:59:59;;;;;;;57.50;33.85;;;;;;;0.17;82.13;98858.77;120491;1153;104380;-81
2021/01/14 02:02:28;;;;;;;62.90;35.00;;;;;;;0.15;81.97;98856.23;119923;1154;104380;-82
2021/01/14 02:04:57;;;;;;;63.47;35.47;;;;;;;0.16;82.08;98862.20;120558;1153;104886;-82
2021/01/14 02:07:59;;;;;;;57.87;32.93;;;;;;;0.15;82.04;98865.64;120638;1154;104412;-82
2021/01/14 02:10:33;;;;;;;61.03;34.10;;;;;;;0.16;82.04;98865.61;120527;1154;104301;-82
2021/01/14 02:13:07;;;;;;;54.50;33.27;;;;;;;0.18;82.33;98861.34;120556;1153;104830;-82
2021/01/14 02:15:35;;;;;;;57.73;33.37;;;;;;;0.21;82.24;98863.02;120172;1154;104465;-82
2021/01/14 02:18:02;;;;;;;56.63;34.00;;;;;;;0.22;82.05;98865.56;120564;1154;104477;-81
2021/01/14 02:20:31;;;;;;;57.17;34.37;;;;;;;0.26;82.12;98876.62;120052;1154;104908;-81
2021/01/14 02:23:21;;;;;;;59.13;33.87;;;;;;;0.29;82.19;98872.30;120216;1153;104457;-81
2021/01/14 02:26:10;;;;;;;55.10;33.53;;;;;;;0.32;82.08;98867.98;120508;1154;103086;-82
2021/01/14 02:28:40;;;;;;;58.80;34.93;;;;;;;0.34;82.44;98869.66;120485;1153;104401;-82
2021/01/14 02:31:08;;;;;;;59.57;33.97;;;;;;;0.40;82.32;98877.30;120508;1153;104493;-82
2021/01/14 02:33:35;;;;;;;56.77;34.00;;;;;;;0.42;82.01;98872.98;120517;1154;104396;-81
2021/01/14 02:36:04;;;;;;;54.60;33.10;;;;;;;0.42;82.15;98870.42;120540;1154;104327;-81
2021/01/14 02:38:34;;;;;;;58.40;34.40;;;;;;;0.41;81.88;98876.42;120569;1154;104409;-81
2021/01/14 02:41:01;;;;;;;58.03;34.60;;;;;;;0.40;81.77;98872.17;120500;1153;104469;-81
2021/01/14 02:43:28;;;;;;;57.43;32.57;;;;;;;0.38;81.95;98873.91;120512;1153;104420;-81
2021/01/14 02:45:56;;;;;;;61.57;35.17;;;;;;;0.40;82.19;98874.73;120024;1153;104889;-81
2021/01/14 02:48:37;;;;;;;57.30;33.27;;;;;;;0.44;82.24;98876.38;120501;1153;102632;-81
2021/01/14 02:51:12;;;;;;;52.47;32.10;;;;;;;0.43;81.86;98881.53;120494;1153;104415;-81
2021/01/14 02:53:41;;;;;;;58.93;33.60;;;;;;;0.43;82.08;98889.23;120562;1153;103157;-79
2021/01/14 02:56:10;;;;;;;58.53;34.13;;;;;;;0.41;81.77;98880.70;120531;1153;104380;-82
2021/01/14 02:58:37;;;;;;;55.33;34.10;;;;;;;0.42;82.15;98883.25;120260;1153;104346;-82
2021/01/14 03:01:04;;;;;;;58.87;33.77;;;;;;;0.44;82.18;98885.80;120467;1154;102118;-82
2021/01/14 03:03:32;;;;;;;58.93;35.10;;;;;;;0.47;82.04;98881.47;120574;1153;104425;-82
2021/01/14 03:05:59;;;;;;;57.73;33.83;;;;;;;0.48;81.77;98880.59;120529;1153;104429;-82
2021/01/14 03:08:26;;;;;;;56.30;33.93;;;;;;;0.49;81.85;98884.85;120570;1154;104664;-82
2021/01/14 03:10:53;;;;;;;57.10;33.35;;;;;;;0.49;81.87;98884.00;120420;1154;104304;-82
2021/01/14 03:13:20;;;;;;;57.70;34.50;;;;;;;0.44;81.68;98889.20;120172;1153;104403;-82
2021/01/14 03:15:48;;;;;;;55.83;33.87;;;;;;;0.43;81.58;98889.23;120658;1153;104511;-82
2021/01/14 03:18:15;;;;;;;57.93;35.10;;;;;;;0.44;81.88;98889.20;120502;1153;104380;-82
2021/01/14 03:20:42;;;;;;;55.33;34.47;;;;;;;0.45;81.70;98885.77;120523;1153;104327;-82
2021/01/14 03:23:09;;;;;;;59.47;34.07;;;;;;;0.48;81.96;98890.86;120541;1153;104540;-82
2021/01/14 03:25:37;;;;;;;59.13;34.20;;;;;;;0.49;81.81;98892.55;120407;1154;102492;-82
2021/01/14 03:28:04;;;;;;;55.37;34.00;;;;;;;0.50;81.81;98883.98;120554;1154;104594;-82
2021/01/14 03:30:31;;;;;;;54.20;33.30;;;;;;;0.51;81.78;98890.80;119875;1154;104425;-83
2021/01/14 03:32:58;;;;;;;57.33;34.83;;;;;;;0.51;81.73;98882.27;120304;1154;104315;-81
2021/01/14 03:35:26;;;;;;;66.33;37.47;;;;;;;0.52;81.98;98897.63;120521;1153;104515;-81
2021/01/14 03:37:53;;;;;;;62.93;36.33;;;;;;;0.53;81.82;98890.78;120535;1151;104462;-81
2021/01/14 03:40:20;;;;;;;59.77;34.17;;;;;;;0.53;81.84;98907.02;120592;1154;104553;-81
2021/01/14 03:42:47;;;;;;;62.20;34.95;;;;;;;0.56;81.81;98899.31;120572;1153;104415;-82
2021/01/14 03:45:14;;;;;;;56.43;33.73;;;;;;;0.58;81.85;98910.40;120532;1154;104429;-82
2021/01/14 03:47:41;;;;;;;58.57;34.60;;;;;;;0.60;81.67;98903.53;119967;1154;104304;-82
2021/01/14 03:50:09;;;;;;;65.63;36.63;;;;;;;0.63;81.64;98901.78;120601;1153;104404;-81
2021/01/14 03:52:36;;;;;;;60.03;35.63;;;;;;;0.62;81.69;98900.94;120133;1154;104486;-81
2021/01/14 03:55:04;;;;;;;63.53;36.70;;;;;;;0.60;81.82;98898.40;120521;1153;104391;-82
2021/01/14 03:57:36;;;;;;;64.90;36.37;;;;;;;0.62;81.71;98900.94;120523;1153;104380;-82
2021/01/14 04:00:08;;;;;;;64.23;36.43;;;;;;;0.63;81.72;98904.35;119959;1154;104463;-82
2021/01/14 04:02:44;;;;;;;59.70;36.07;;;;;;;0.66;81.66;98904.30;120542;1154;104378;-81
2021/01/14 04:05:11;;;;;;;60.77;35.20;;;;;;;0.67;82.06;98904.28;120468;1153;102506;-81
2021/01/14 04:07:38;;;;;;;60.53;36.57;;;;;;;0.67;81.69;98903.44;120490;1154;104352;-82
2021/01/14 04:10:06;;;;;;;60.23;36.07;;;;;;;0.62;81.45;98906.07;120532;1153;104385;-82
2021/01/14 04:12:33;;;;;;;61.40;35.90;;;;;;;0.57;81.32;98907.86;120551;1154;104371;-82
2021/01/14 04:15:00;;;;;;;60.93;34.87;;;;;;;0.52;81.60;98915.59;120506;1153;103665;-81
2021/01/14 04:17:28;;;;;;;58.80;34.47;;;;;;;0.47;81.38;98911.40;120506;1154;104430;-82
2021/01/14 04:19:55;;;;;;;59.87;35.57;;;;;;;0.45;81.76;98913.98;120576;1153;104378;-82
2021/01/14 04:22:22;;;;;;;61.57;36.03;;;;;;;0.44;81.72;98917.42;120554;1153;104407;-82
2021/01/14 04:24:49;;;;;;;61.10;35.73;;;;;;;0.45;81.54;98911.42;120667;1153;104940;-82
2021/01/14 04:27:17;;;;;;;60.60;35.30;;;;;;;0.44;81.43;98912.29;120512;1154;102956;-82
2021/01/14 04:29:44;;;;;;;59.63;35.48;;;;;;;0.42;81.73;98916.59;119949;1154;104415;-82
2021/01/14 04:32:11;;;;;;;61.77;34.83;;;;;;;0.44;81.74;98919.14;120560;1153;104381;-82
2021/01/14 04:34:38;;;;;;;61.15;35.30;;;;;;;0.39;81.30;98919.20;120558;1154;104390;-82
2021/01/14 04:37:05;;;;;;;61.43;34.20;;;;;;;0.37;81.70;98920.09;120600;1154;104399;-82
2021/01/14 04:39:33;;;;;;;60.17;34.57;;;;;;;0.35;81.65;98917.52;120521;1153;104384;-82
2021/01/14 04:42:02;;;;;;;58.50;34.13;;;;;;;0.35;81.54;98926.93;119984;1153;104303;-81
2021/01/14 04:44:29;;;;;;;63.80;34.80;;;;;;;0.35;81.76;98920.08;120492;1154;104317;-82
2021/01/14 04:47:06;;;;;;;56.73;34.10;;;;;;;0.33;81.47;98923.54;119994;1153;105431;-82
2021/01/14 04:49:35;;;;;;;64.87;34.07;;;;;;;0.28;81.73;98934.70;120527;1153;103255;-82
2021/01/14 04:52:04;;;;;;;59.07;34.13;;;;;;;0.23;81.44;98933.92;120543;1153;104365;-82
2021/01/14 04:54:35;;;;;;;58.53;33.43;;;;;;;0.22;81.65;98939.06;120665;1153;102472;-81
2021/01/14 04:57:19;;;;;;;56.10;34.90;;;;;;;0.20;81.69;98940.80;120346;1153;104227;-81
2021/01/14 04:59:51;;;;;;;65.93;37.73;;;;;;;0.20;82.01;98943.37;119971;1154;104383;-82
2021/01/14 05:02:24;;;;;;;61.53;35.60;;;;;;;0.19;81.92;98939.11;120538;1153;104850;-81
2021/01/14 05:04:53;;;;;;;62.70;36.40;;;;;;;0.20;81.85;98938.24;120487;1154;104488;-82
2021/01/14 05:07:29;;;;;;;64.10;34.70;;;;;;;0.21;81.85;98939.94;120539;1153;104332;-82
2021/01/14 05:10:05;;;;;;;64.47;36.57;;;;;;;0.24;81.84;98952.72;120479;1154;104496;-82
2021/01/14 05:12:34;;;;;;;62.10;34.18;;;;;;;0.21;81.56;98955.32;119948;1152;104356;-82
2021/01/14 05:15:03;;;;;;;60.30;36.30;;;;;;;0.18;81.54;98955.33;120120;1154;104920;-82
2021/01/14 05:17:31;;;;;;;60.27;34.97;;;;;;;0.16;81.75;98957.06;119909;1153;104448;-82
2021/01/14 05:20:02;;;;;;;65.83;36.20;;;;;;;0.16;81.76;98954.50;120007;1154;104404;-82
2021/01/14 05:22:31;;;;;;;61.87;36.00;;;;;;;0.17;81.79;98966.45;120535;1153;104403;-81
2021/01/14 05:25:09;;;;;;;62.67;35.67;;;;;;;0.17;81.76;98966.45;120568;1154;101926;-82
2021/01/14 05:27:38;;;;;;;62.63;34.97;;;;;;;0.15;81.63;98973.31;120550;1154;104387;-81
2021/01/14 05:30:10;;;;;;;62.63;35.33;;;;;;;0.12;81.93;98966.51;120522;1154;104956;-82
2021/01/14 05:32:43;;;;;;;68.00;35.10;;;;;;;0.11;81.86;98981.91;120222;1154;104485;-82
2021/01/14 05:35:12;;;;;;;59.73;34.13;;;;;;;0.09;81.86;98976.80;120564;1153;104476;-82
2021/01/14 05:37:42;;;;;;;60.80;33.83;;;;;;;0.08;81.71;98979.38;120508;1154;104371;-81
2021/01/14 05:40:13;;;;;;;64.60;35.17;;;;;;;0.09;81.98;98979.36;120575;1154;104439;-81
2021/01/14 05:42:40;;;;;;;62.70;35.23;;;;;;;0.10;81.95;98980.21;120579;1152;103080;-81
2021/01/14 05:45:23;;;;;;;64.80;35.40;;;;;;;0.10;81.90;98982.77;119985;1154;104356;-82
2021/01/14 05:47:51;;;;;;;57.70;33.23;;;;;;;0.11;82.03;98985.32;120602;1153;104331;-82
2021/01/14 05:50:28;;;;;;;60.67;34.70;;;;;;;0.13;82.30;98987.87;119981;1154;104391;-82
2021/01/14 05:52:56;;;;;;;71.23;36.30;;;;;;;0.15;82.35;98988.70;120004;1153;105236;-82
2021/01/14 05:55:28;;;;;;;62.37;34.67;;;;;;;0.17;82.28;98994.66;120610;1153;104448;-82
2021/01/14 05:58:02;;;;;;;59.93;33.80;;;;;;;0.17;81.93;98994.66;120609;1153;104341;-82
2021/01/14 06:00:35;;;;;;;61.53;33.80;;;;;;;0.16;82.11;98993.80;120635;1153;104319;-82
2021/01/14 06:03:23;;;;;;;59.87;33.90;;;;;;;0.17;81.92;98999.78;120640;1153;103067;-82
2021/01/14 06:05:51;;;;;;;63.60;35.30;;;;;;;0.12;81.65;98997.27;120606;1154;104558;-82
2021/01/14 06:08:25;;;;;;;63.87;33.90;;;;;;;0.10;81.83;98999.00;120205;1153;102798;-82
2021/01/14 06:10:53;;;;;;;62.43;34.00;;;;;;;0.08;82.04;98995.61;120397;1154;104229;-81
2021/01/14 06:13:40;;;;;;;64.90;34.07;;;;;;;0.07;82.15;99001.61;120093;1154;104359;-81
2021/01/14 06:16:08;;;;;;;63.97;35.77;;;;;;;0.08;82.15;99002.45;120601;1154;104430;-82
2021/01/14 06:18:36;;;;;;;58.77;33.33;;;;;;;0.09;81.83;99006.72;119998;1154;104362;-82
2021/01/14 06:21:04;;;;;;;61.33;32.37;;;;;;;0.08;81.45;99005.02;119895;1153;104425;-81
2021/01/14 06:23:45;;;;;;;65.30;34.57;;;;;;;0.06;81.77;99007.59;120545;1153;104439;-81
2021/01/14 06:26:26;;;;;;;64.35;33.60;;;;;;;0.08;81.95;99005.02;120588;1154;104477;-82
2021/01/14 06:28:55;;;;;;;59.07;33.43;;;;;;;0.07;81.75;99014.42;120616;1154;104591;-82
2021/01/14 06:31:26;;;;;;;65.13;33.43;;;;;;;0.08;81.63;99015.27;120549;1153;104500;-82
2021/01/14 06:33:57;;;;;;;66.23;34.40;;;;;;;0.08;81.95;99020.40;119943;1154;104435;-81
2021/01/14 06:36:33;;;;;;;66.70;34.15;;;;;;;0.07;81.50;99024.68;120583;1153;104508;-82
2021/01/14 06:39:16;;;;;;;58.27;31.33;;;;;;;0.04;81.44;99026.42;120066;1154;104347;-82
2021/01/14 06:41:44;;;;;;;60.00;32.40;;;;;;;0.02;81.44;99025.59;120071;1154;104350;-81
2021/01/14 06:44:14;;;;;;;59.47;32.20;;;;;;;0.02;81.36;99025.59;120612;1154;104436;-80
2021/01/14 06:46:42;;;;;;;56.13;30.70;;;;;;;-0.01;81.22;99027.29;120530;1153;102927;-81
2021/01/14 06:49:12;;;;;;;64.47;33.10;;;;;;;-0.03;81.34;99038.42;120560;1152;102537;-80
2021/01/14 06:51:46;;;;;;;62.03;32.60;;;;;;;-0.05;81.25;99038.44;120047;1152;104343;-81
2021/01/14 06:54:14;;;;;;;65.93;35.27;;;;;;;-0.05;81.32;99038.44;120529;1154;102487;-82
2021/01/14 06:57:06;;;;;;;75.57;36.87;;;;;;;-0.05;81.36;99046.13;120545;1154;104327;-81
2021/01/14 06:59:37;;;;;;;70.70;37.23;;;;;;;-0.04;81.39;99049.55;120409;1153;104463;-81
2021/01/14 07:02:07;;;;;;;67.27;36.87;;;;;;;-0.04;81.29;99058.08;120559;1154;104394;-81
2021/01/14 07:04:44;;;;;;;75.40;37.67;;;;;;;-0.06;81.55;99062.38;120527;1153;103199;-81
2021/01/14 07:07:26;;;;;;;69.40;37.08;;;;;;;-0.06;81.20;99067.50;120463;1154;104307;-81
2021/01/14 07:10:06;;;;;;;75.80;39.20;;;;;;;-0.07;81.49;99073.49;120500;1153;104412;-81
2021/01/14 07:12:36;;;;;;;80.80;40.33;;;;;;;-0.07;81.43;99081.18;120491;1151;104613;-81
2021/01/14 07:15:13;;;;;;;73.17;38.97;;;;;;;-0.07;81.64;99085.45;119857;1154;105434;-81
2021/01/14 07:17:42;;;;;;;76.87;40.10;;;;;;;-0.07;81.41;99093.14;120561;1153;104671;-82
2021/01/14 07:20:14;;;;;;;74.20;38.83;;;;;;;-0.07;81.58;99091.44;120350;1153;104438;-82
2021/01/14 07:22:53;;;;;;;73.03;37.57;;;;;;;-0.05;81.51;99092.27;119908;1152;104565;-81
2021/01/14 07:25:21;;;;;;;67.43;36.47;;;;;;;-0.04;81.31;99093.97;120497;1154;104351;-81
2021/01/14 07:27:49;;;;;;;68.50;35.30;;;;;;;-0.03;81.37;99089.69;120515;1154;104223;-81
2021/01/14 07:30:18;;;;;;;64.00;35.27;;;;;;;-0.04;81.12;99093.12;119992;1154;104367;-81
2021/01/14 07:33:04;;;;;;;66.93;33.97;;;;;;;-0.08;81.01;99094.86;119993;1154;104356;-82
2021/01/14 07:35:32;;;;;;;60.90;32.80;;;;;;;-0.08;80.74;99101.70;120611;1154;102786;-82
2021/01/14 07:38:00;;;;;;;66.57;35.07;;;;;;;-0.08;80.86;99097.42;120488;1153;104406;-82
2021/01/14 07:40:28;;;;;;;67.40;35.20;;;;;;;-0.07;80.72;99099.13;120320;1153;104369;-82
2021/01/14 07:42:57;;;;;;;64.93;33.27;;;;;;;-0.07;80.70;99099.13;119970;1154;104426;-82
2021/01/14 07:45:25;;;;;;;71.33;35.80;;;;;;;-0.06;80.58;99105.09;120530;1153;104471;-82
2021/01/14 07:47:52;;;;;;;69.03;34.50;;;;;;;-0.05;80.71;99107.64;120447;1153;104490;-82
2021/01/14 07:50:23;;;;;;;68.62;33.58;;;;;;;-0.02;80.66;99112.74;119924;1154;104422;-82
2021/01/14 07:52:52;;;;;;;63.97;33.17;;;;;;;0.03;80.42;99119.58;120534;1153;104410;-81
2021/01/14 07:55:28;;;;;;;63.87;33.20;;;;;;;0.08;80.56;99115.25;120518;1152;105490;-82
2021/01/14 07:57:59;;;;;;;;;;;;;;;0.11;80.37;99118.63;120627;1154;104436;-83
2021/01/14 08:00:26;;;;;;;68.23;33.67;;;;;;;0.17;80.42;99127.98;120536;1152;104529;-82
2021/01/14 08:03:06;;;;;;;63.63;33.90;;;;;;;0.20;80.62;99130.55;120126;1154;104292;-83
2021/01/14 08:05:37;;;;;;;66.27;34.23;;;;;;;0.23;80.15;99130.52;120472;1154;104789;-83
2021/01/14 08:08:23;;;;;;;65.73;32.97;;;;;;;0.23;79.80;99135.64;120509;1153;104500;-83
2021/01/14 08:11:23;;;;;;;64.27;33.33;;;;;;;0.20;79.69;99138.23;120433;1153;104410;-82
2021/01/14 08:14:12;;;;;;;62.93;33.07;;;;;;;0.15;79.63;99147.66;120444;1154;104500;-82
2021/01/14 08:16:56;;;;;;;62.75;33.60;;;;;;;0.12;80.11;99155.37;120388;1153;104506;-82
2021/01/14 08:19:29;;;;;;;64.90;34.53;;;;;;;0.09;79.67;99166.51;119900;1154;104336;-82
2021/01/14 08:21:58;;;;;;;61.05;33.40;;;;;;;0.02;79.67;99169.98;120467;1153;104204;-82
2021/01/14 08:24:55;;;;;;;60.40;31.70;;;;;;;-0.03;80.00;99175.12;120445;1154;104329;-83
2021/01/14 08:27:27;;;;;;;65.47;32.83;;;;;;;-0.07;79.99;99181.14;120518;1154;104304;-83
2021/01/14 08:30:14;;;;;;;64.73;32.60;;;;;;;-0.12;79.89;99177.77;120454;1153;102958;-83
2021/01/14 08:32:48;;;;;;;62.57;33.43;;;;;;;-0.21;79.81;99193.18;119886;1154;104495;-83
2021/01/14 08:35:23;;;;;;;60.93;31.53;;;;;;;-0.29;79.78;99199.22;120476;1152;104297;-83
2021/01/14 08:38:03;;;;;;;62.00;32.63;;;;;;;-0.35;80.12;99203.52;120509;1153;103244;-82
2021/01/14 08:40:33;;;;;;;66.43;32.50;;;;;;;-0.41;80.24;99197.55;120462;1154;103148;-82
2021/01/14 08:43:21;;;;;;;64.57;33.53;;;;;;;-0.44;80.51;99200.14;120488;1153;102513;-83
2021/01/14 08:45:52;;;;;;;64.93;32.23;;;;;;;-0.50;80.66;99206.16;119957;1152;104412;-83
2021/01/14 08:48:22;;;;;;;66.33;32.87;;;;;;;-0.46;80.50;99202.70;120498;1153;104418;-83
2021/01/14 08:50:50;;;;;;;66.47;33.23;;;;;;;-0.39;80.91;99208.64;120550;1154;104863;-83
2021/01/14 08:53:17;;;;;;;67.60;32.90;;;;;;;-0.28;80.95;99212.02;120501;1153;103808;-82
2021/01/14 08:56:06;;;;;;;62.33;32.70;;;;;;;-0.16;80.99;99223.92;120517;1153;104390;-82
2021/01/14 08:58:44;;;;;;;69.03;34.20;;;;;;;-0.02;80.67;99220.40;120545;1152;105267;-82
2021/01/14 09:01:22;;;;;;;63.13;32.00;;;;;;;0.12;80.67;99220.32;120556;1153;104407;-82
2021/01/14 09:03:52;;;;;;;63.47;32.00;;;;;;;0.30;80.84;99229.60;119954;1153;104457;-82
2021/01/14 09:06:30;;;;;;;65.17;34.30;;;;;;;0.44;80.14;99229.51;119926;1153;103274;-82
2021/01/14 09:08:59;;;;;;;70.97;34.00;;;;;;;0.47;80.12;99230.33;120484;1154;104335;-82
2021/01/14 09:11:28;;;;;;;67.93;34.07;;;;;;;0.53;80.09;99234.55;119937;1154;104316;-83
2021/01/14 09:14:12;;;;;;;68.20;33.53;;;;;;;0.50;79.31;99234.58;120550;1153;104426;-83
2021/01/14 09:16:45;;;;;;;64.33;32.27;;;;;;;0.41;79.07;99238.08;120520;1154;104332;-83
2021/01/14 09:19:19;;;;;;;63.77;31.10;;;;;;;0.34;79.21;99240.69;120506;1152;105002;-83
2021/01/14 09:21:47;;;;;;;59.60;30.37;;;;;;;0.29;79.56;99245.86;119912;1154;104455;-83
2021/01/14 09:24:16;;;;;;;66.20;31.10;;;;;;;0.26;79.51;99239.04;119956;1152;104343;-82
2021/01/14 09:26:49;;;;;;;56.17;30.30;;;;;;;0.22;79.43;99244.20;120513;1154;104824;-83
2021/01/14 09:29:29;;;;;;;60.03;29.20;;;;;;;0.13;79.37;99241.69;120654;1154;104348;-83
2021/01/14 09:31:57;;;;;;;58.23;30.10;;;;;;;0.07;79.52;99260.53;120606;1153;104441;-82
2021/01/14 09:34:24;;;;;;;54.65;29.10;;;;;;;0.06;79.58;99257.97;120453;1153;102656;-82
2021/01/14 09:36:51;;;;;;;60.77;30.67;;;;;;;0.07;79.59;99257.96;120465;1153;104336;-83
2021/01/14 09:39:18;;;;;;;59.43;29.87;;;;;;;0.06;79.78;99263.10;120479;1153;104393;-83
2021/01/14 09:41:46;;;;;;;59.33;29.30;;;;;;;0.06;79.63;99268.23;120469;1154;103251;-83
2021/01/14 09:44:15;;;;;;;56.50;28.60;;;;;;;0.09;79.86;99265.64;120430;1153;104389;-83
2021/01/14 09:46:43;;;;;;;58.20;29.65;;;;;;;0.13;79.88;99272.45;119855;1154;103122;-83
2021/01/14 09:49:15;;;;;;;56.93;28.97;;;;;;;0.17;79.70;99272.41;120331;1153;104479;-83
2021/01/14 09:51:45;;;;;;;55.85;27.80;;;;;;;0.19;79.72;99265.59;120401;1154;104480;-83
2021/01/14 09:54:13;;;;;;;55.60;28.97;;;;;;;0.20;79.57;99271.57;120138;1154;104434;-83
2021/01/14 09:56:47;;;;;;;60.77;30.17;;;;;;;0.25;79.57;99275.80;119892;1154;104404;-83
2021/01/14 09:59:25;;;;;;;60.50;28.83;;;;;;;0.30;79.53;99278.33;120378;1154;104487;-82
2021/01/14 10:02:25;;;;;;;50.17;26.93;;;;;;;0.34;79.36;99274.88;120572;1153;104249;-83
2021/01/14 10:04:58;;;;;;;55.03;27.53;;;;;;;0.33;79.10;99287.71;120475;1153;102397;-83
2021/01/14 10:07:26;;;;;;;51.20;26.93;;;;;;;0.27;79.05;99288.61;119980;1154;104410;-83
2021/01/14 10:09:54;;;;;;;57.90;28.47;;;;;;;0.26;79.01;99292.04;120458;1153;104419;-83
2021/01/14 10:12:21;;;;;;;53.13;27.87;;;;;;;0.26;78.93;99297.17;120415;1153;104297;-83
2021/01/14 10:14:48;;;;;;;56.50;27.80;;;;;;;0.23;79.24;99298.05;120471;1153;104522;-83
2021/01/14 10:17:17;;;;;;;57.03;27.67;;;;;;;0.21;78.96;99298.91;120504;1151;104522;-83
2021/01/14 10:19:47;;;;;;;51.10;25.40;;;;;;;0.18;79.25;99294.66;120472;1151;104556;-83
2021/01/14 10:22:16;;;;;;;44.60;23.53;;;;;;;0.19;79.03;99304.05;120455;1151;104422;-83
2021/01/14 10:24:44;;;;;;;45.03;23.93;;;;;;;0.21;79.19;99304.05;120441;1151;102802;-83
2021/01/14 10:27:16;;;;;;;46.35;25.30;;;;;;;0.27;79.55;99298.88;120463;1151;104386;-83
2021/01/14 10:29:45;;;;;;;48.90;25.25;;;;;;;0.29;79.13;99299.70;120541;1151;104586;-83
2021/01/14 10:32:17;;;;;;;47.97;25.20;;;;;;;0.27;78.92;99304.84;120476;1151;104464;-83
2021/01/14 10:34:48;;;;;;;51.80;26.70;;;;;;;0.27;79.04;99304.00;120558;1151;104461;-83
2021/01/14 10:37:30;;;;;;;45.77;24.40;;;;;;;0.35;78.86;99293.68;120519;1151;102618;-83
2021/01/14 10:40:00;;;;;;;44.70;23.45;;;;;;;0.44;78.94;99302.19;120619;1151;104343;-85
2021/01/14 10:42:34;;;;;;;46.27;23.57;;;;;;;0.53;79.04;99303.82;120485;1151;104329;-84
2021/01/14 10:45:07;;;;;;;45.67;24.13;;;;;;;0.59;78.76;99296.11;120503;1151;104422;-84
2021/01/14 10:47:41;;;;;;;47.20;23.40;;;;;;;0.62;78.65;99300.36;120444;1151;102716;-84
2021/01/14 10:50:25;;;;;;;41.20;22.27;;;;;;;0.65;78.63;99298.61;120553;1151;104482;-83
2021/01/14 10:53:04;;;;;;;44.40;22.27;;;;;;;0.66;78.55;99294.33;120537;1154;104400;-83
2021/01/14 10:55:32;;;;;;;38.77;21.33;;;;;;;0.63;78.33;99291.80;120472;1151;104319;-83
2021/01/14 10:58:07;;;;;;;39.50;22.93;;;;;;;0.57;78.46;99298.69;120457;1151;102587;-83
2021/01/14 11:00:41;;;;;;;40.43;23.50;;;;;;;0.56;78.76;99298.70;120548;1151;102641;-82
2021/01/14 11:03:12;;;;;;;39.83;21.63;;;;;;;0.54;78.57;99298.70;120559;1150;102962;-84
2021/01/14 11:05:45;;;;;;;37.70;21.60;;;;;;;0.40;78.12;99300.51;120598;1151;104352;-82
2021/01/14 11:08:24;;;;;;;39.97;23.00;;;;;;;0.32;78.39;99307.37;120629;1153;104352;-83
2021/01/14 11:11:04;;;;;;;37.70;21.63;;;;;;;0.27;78.46;99309.13;120642;1151;104340;-84
2021/01/14 11:13:53;;;;;;;37.50;20.60;;;;;;;0.20;78.76;99310.89;120580;1151;104426;-85
2021/01/14 11:16:25;;;;;;;36.23;21.23;;;;;;;0.16;79.02;99313.45;120363;1150;104445;-82
2021/01/14 11:18:55;;;;;;;40.10;20.90;;;;;;;0.13;79.12;99313.47;120553;1151;104956;-84
2021/01/14 11:21:28;;;;;;;37.37;20.43;;;;;;;0.10;78.85;99316.91;120456;1151;104300;-84
2021/01/14 11:23:57;;;;;;;38.77;21.87;;;;;;;0.09;79.27;99316.91;120492;1151;104493;-83
2021/01/14 11:26:24;;;;;;;39.47;21.27;;;;;;;0.09;79.23;99311.79;120431;1151;104422;-83